sensor_id;sensor_type;location;lat;lon;timestamp;pressure;altitude;pressure_sealevel;temperature;humidity
70909;BME280;58554;52.006;5.926;2022-12-11T00:02:27;100333.56;;;-0.87;80.21
70909;BME280;58554;52.006;5.926;2022-12-11T00:04:53;100323.19;;;-0.87;79.86
70909;BME280;58554;52.006;5.926;2022-12-11T00:07:20;100331.78;;;-0.85;80.11
70909;BME280;58554;52.006;5.926;2022-12-11T00:09:49;100326.59;;;-0.85;79.93
70909;BME280;58554;52.006;5.926;2022-12-11T00:12:15;100319.66;;;-0.83;80.10
70909;BME280;58554;52.006;5.926;2022-12-11T00:14:42;100319.66;;;-0.83;79.76
70909;BME280;58554;52.006;5.926;2022-12-11T00:17:08;100323.06;;;-0.79;80.81
70909;BME280;58554;52.006;5.926;2022-12-11T00:19:35;100325.66;;;-0.81;80.22
70909;BME280;58554;52.006;5.926;2022-12-11T00:22:01;100334.28;;;-0.78;80.52
70909;BME280;58554;52.006;5.926;2022-12-11T00:24:28;100332.50;;;-0.76;79.95
70909;BME280;58554;52.006;5.926;2022-12-11T00:26:57;100335.09;;;-0.75;80.08
70909;BME280;58554;52.006;5.926;2022-12-11T00:29:24;100330.72;;;-0.73;79.94
70909;BME280;58554;52.006;5.926;2022-12-11T00:31:50;100328.97;;;-0.72;79.85
70909;BME280;58554;52.006;5.926;2022-12-11T00:34:17;100327.22;;;-0.70;79.73
70909;BME280;58554;52.006;5.926;2022-12-11T00:36:43;100328.91;;;-0.69;79.87
70909;BME280;58554;52.006;5.926;2022-12-11T00:39:10;100334.09;;;-0.68;79.71
70909;BME280;58554;52.006;5.926;2022-12-11T00:41:36;100329.75;;;-0.67;80.11
70909;BME280;58554;52.006;5.926;2022-12-11T00:44:05;100326.31;;;-0.69;80.36
70909;BME280;58554;52.006;5.926;2022-12-11T00:46:32;100327.22;;;-0.70;80.06
70909;BME280;58554;52.006;5.926;2022-12-11T00:48:59;100323.78;;;-0.71;80.08
70909;BME280;58554;52.006;5.926;2022-12-11T00:51:25;100327.22;;;-0.70;80.16
70909;BME280;58554;52.006;5.926;2022-12-11T00:53:52;100332.44;;;-0.72;80.49
70909;BME280;58554;52.006;5.926;2022-12-11T00:56:20;100316.88;;;-0.73;80.03
70909;BME280;58554;52.006;5.926;2022-12-11T00:58:48;100322.03;;;-0.72;79.98
70909;BME280;58554;52.006;5.926;2022-12-11T01:01:20;100317.69;;;-0.70;79.62
70909;BME280;58554;52.006;5.926;2022-12-11T01:03:51;100315.91;;;-0.68;80.00
70909;BME280;58554;52.006;5.926;2022-12-11T01:06:19;100315.00;;;-0.67;79.67
70909;BME280;58554;52.006;5.926;2022-12-11T01:08:48;100305.53;;;-0.68;79.96
70909;BME280;58554;52.006;5.926;2022-12-11T01:11:15;100306.38;;;-0.67;80.04
70909;BME280;58554;52.006;5.926;2022-12-11T01:13:42;100308.13;;;-0.68;80.54
70909;BME280;58554;52.006;5.926;2022-12-11T01:16:13;100300.41;;;-0.71;80.92
70909;BME280;58554;52.006;5.926;2022-12-11T01:18:43;100297.84;;;-0.72;81.08
70909;BME280;58554;52.006;5.926;2022-12-11T01:21:11;100300.44;;;-0.72;81.28
70909;BME280;58554;52.006;5.926;2022-12-11T01:23:39;100306.47;;;-0.72;81.22
70909;BME280;58554;52.006;5.926;2022-12-11T01:26:06;100301.28;;;-0.73;81.26
70909;BME280;58554;52.006;5.926;2022-12-11T01:28:34;100301.28;;;-0.72;81.12
70909;BME280;58554;52.006;5.926;2022-12-11T01:31:01;100296.97;;;-0.73;82.14
70909;BME280;58554;52.006;5.926;2022-12-11T01:33:28;100297.00;;;-0.74;81.51
70909;BME280;58554;52.006;5.926;2022-12-11T01:35:57;100299.56;;;-0.73;80.96
70909;BME280;58554;52.006;5.926;2022-12-11T01:38:24;100296.94;;;-0.71;80.99
70909;BME280;58554;52.006;5.926;2022-12-11T01:40:50;100292.63;;;-0.71;81.13
70909;BME280;58554;52.006;5.926;2022-12-11T01:43:17;100286.53;;;-0.70;80.59
70909;BME280;58554;52.006;5.926;2022-12-11T01:45:45;100295.16;;;-0.69;80.68
70909;BME280;58554;52.006;5.926;2022-12-11T01:48:16;100289.97;;;-0.69;80.65
70909;BME280;58554;52.006;5.926;2022-12-11T01:50:48;100296.88;;;-0.68;80.30
70909;BME280;58554;52.006;5.926;2022-12-11T01:53:22;100298.53;;;-0.64;80.17
70909;BME280;58554;52.006;5.926;2022-12-11T01:55:54;100301.06;;;-0.61;80.02
70909;BME280;58554;52.006;5.926;2022-12-11T01:58:26;100303.66;;;-0.60;80.14
70909;BME280;58554;52.006;5.926;2022-12-11T02:00:57;100299.31;;;-0.59;80.06
70909;BME280;58554;52.006;5.926;2022-12-11T02:03:26;100294.09;;;-0.59;79.98
70909;BME280;58554;52.006;5.926;2022-12-11T02:05:52;100294.94;;;-0.57;80.10
70909;BME280;58554;52.006;5.926;2022-12-11T02:08:22;100301.91;;;-0.59;80.63
70909;BME280;58554;52.006;5.926;2022-12-11T02:10:59;100306.25;;;-0.61;81.38
70909;BME280;58554;52.006;5.926;2022-12-11T02:13:36;100303.69;;;-0.63;81.28
70909;BME280;58554;52.006;5.926;2022-12-11T02:16:14;100298.56;;;-0.66;81.83
70909;BME280;58554;52.006;5.926;2022-12-11T02:18:51;100299.44;;;-0.67;81.28
70909;BME280;58554;52.006;5.926;2022-12-11T02:21:29;100306.34;;;-0.64;81.94
70909;BME280;58554;52.006;5.926;2022-12-11T02:24:37;100296.81;;;-0.65;81.49
70909;BME280;58554;52.006;5.926;2022-12-11T02:27:25;100303.75;;;-0.64;81.45
70909;BME280;58554;52.006;5.926;2022-12-11T02:30:02;100300.22;;;-0.62;80.95
70909;BME280;58554;52.006;5.926;2022-12-11T02:32:34;100290.69;;;-0.63;81.16
70909;BME280;58554;52.006;5.926;2022-12-11T02:35:09;100290.69;;;-0.61;80.77
70909;BME280;58554;52.006;5.926;2022-12-11T02:37:43;100275.94;;;-0.59;80.73
70909;BME280;58554;52.006;5.926;2022-12-11T02:40:16;100289.75;;;-0.57;80.90
70909;BME280;58554;52.006;5.926;2022-12-11T02:42:48;100287.16;;;-0.58;81.05
70909;BME280;58554;52.006;5.926;2022-12-11T02:45:20;100291.53;;;-0.61;81.14
70909;BME280;58554;52.006;5.926;2022-12-11T02:47:50;100280.28;;;-0.60;81.17
70909;BME280;58554;52.006;5.926;2022-12-11T02:50:20;100290.63;;;-0.58;81.41
70909;BME280;58554;52.006;5.926;2022-12-11T02:52:50;100276.84;;;-0.62;81.66
70909;BME280;58554;52.006;5.926;2022-12-11T02:55:21;100278.59;;;-0.62;81.57
70909;BME280;58554;52.006;5.926;2022-12-11T02:57:56;100275.13;;;-0.63;81.24
70909;BME280;58554;52.006;5.926;2022-12-11T03:00:31;100275.94;;;-0.61;81.22
70909;BME280;58554;52.006;5.926;2022-12-11T03:02:58;100274.19;;;-0.58;80.80
70909;BME280;58554;52.006;5.926;2022-12-11T03:05:25;100273.31;;;-0.57;80.71
70909;BME280;58554;52.006;5.926;2022-12-11T03:07:52;100270.75;;;-0.59;81.00
70909;BME280;58554;52.006;5.926;2022-12-11T03:10:19;100262.06;;;-0.58;81.05
70909;BME280;58554;52.006;5.926;2022-12-11T03:12:48;100256.91;;;-0.60;81.18
70909;BME280;58554;52.006;5.926;2022-12-11T03:15:20;100264.69;;;-0.60;81.49
70909;BME280;58554;52.006;5.926;2022-12-11T03:18:04;100269.03;;;-0.60;81.67
70909;BME280;58554;52.006;5.926;2022-12-11T03:20:44;100262.94;;;-0.57;81.89
70909;BME280;58554;52.006;5.926;2022-12-11T03:23:21;100272.28;;;-0.49;81.74
70909;BME280;58554;52.006;5.926;2022-12-11T03:26:03;100271.31;;;-0.45;81.66
70909;BME280;58554;52.006;5.926;2022-12-11T03:28:41;100270.47;;;-0.44;81.68
70909;BME280;58554;52.006;5.926;2022-12-11T03:31:14;100274.72;;;-0.41;81.18
70909;BME280;58554;52.006;5.926;2022-12-11T03:33:55;100266.91;;;-0.40;81.31
70909;BME280;58554;52.006;5.926;2022-12-11T03:36:31;100274.63;;;-0.36;81.31
70909;BME280;58554;52.006;5.926;2022-12-11T03:39:06;100275.44;;;-0.34;81.19
70909;BME280;58554;52.006;5.926;2022-12-11T03:41:38;100263.38;;;-0.35;80.80
70909;BME280;58554;52.006;5.926;2022-12-11T03:44:10;100264.97;;;-0.31;80.61
70909;BME280;58554;52.006;5.926;2022-12-11T03:46:39;100264.09;;;-0.30;81.17
70909;BME280;58554;52.006;5.926;2022-12-11T03:49:14;100272.75;;;-0.30;80.99
70909;BME280;58554;52.006;5.926;2022-12-11T03:51:45;100269.28;;;-0.29;81.17
70909;BME280;58554;52.006;5.926;2022-12-11T03:54:16;100264.97;;;-0.30;80.96
70909;BME280;58554;52.006;5.926;2022-12-11T03:56:44;100264.09;;;-0.29;81.08
70909;BME280;58554;52.006;5.926;2022-12-11T03:59:14;100258.84;;;-0.27;80.93
70909;BME280;58554;52.006;5.926;2022-12-11T04:01:40;100254.44;;;-0.24;80.40
70909;BME280;58554;52.006;5.926;2022-12-11T04:04:07;100264.81;;;-0.22;80.35
70909;BME280;58554;52.006;5.926;2022-12-11T04:06:36;100249.19;;;-0.21;80.30
70909;BME280;58554;52.006;5.926;2022-12-11T04:09:02;100246.53;;;-0.19;80.30
70909;BME280;58554;52.006;5.926;2022-12-11T04:11:29;100249.09;;;-0.16;80.29
70909;BME280;58554;52.006;5.926;2022-12-11T04:13:56;100254.25;;;-0.14;80.11
70909;BME280;58554;52.006;5.926;2022-12-11T04:16:22;100250.72;;;-0.12;80.03
70909;BME280;58554;52.006;5.926;2022-12-11T04:18:49;100254.16;;;-0.10;80.29
70909;BME280;58554;52.006;5.926;2022-12-11T04:21:15;100255.91;;;-0.10;80.20
70909;BME280;58554;52.006;5.926;2022-12-11T04:23:45;100245.50;;;-0.10;80.07
70909;BME280;58554;52.006;5.926;2022-12-11T04:26:14;100250.72;;;-0.10;80.17
70909;BME280;58554;52.006;5.926;2022-12-11T04:28:45;100251.56;;;-0.10;80.33
70909;BME280;58554;52.006;5.926;2022-12-11T04:31:14;100247.22;;;-0.11;80.29
70909;BME280;58554;52.006;5.926;2022-12-11T04:33:42;100252.44;;;-0.11;80.23
70909;BME280;58554;52.006;5.926;2022-12-11T04:36:10;100251.59;;;-0.13;80.43
70909;BME280;58554;52.006;5.926;2022-12-11T04:38:38;100253.34;;;-0.13;80.19
70909;BME280;58554;52.006;5.926;2022-12-11T04:41:10;100248.16;;;-0.13;80.23
70909;BME280;58554;52.006;5.926;2022-12-11T04:43:38;100251.59;;;-0.11;80.32
70909;BME280;58554;52.006;5.926;2022-12-11T04:46:07;100248.09;;;-0.10;79.98
70909;BME280;58554;52.006;5.926;2022-12-11T04:48:37;100238.56;;;-0.10;80.03
70909;BME280;58554;52.006;5.926;2022-12-11T04:51:04;100241.13;;;-0.08;79.99
70909;BME280;58554;52.006;5.926;2022-12-11T04:53:32;100244.50;;;-0.05;79.96
70909;BME280;58554;52.006;5.926;2022-12-11T04:56:00;100242.78;;;-0.04;80.06
70909;BME280;58554;52.006;5.926;2022-12-11T04:58:32;100236.69;;;-0.05;79.62
70909;BME280;58554;52.006;5.926;2022-12-11T05:00:59;100239.31;;;-0.05;79.70
70909;BME280;58554;52.006;5.926;2022-12-11T05:03:26;100234.91;;;-0.03;79.86
70909;BME280;58554;52.006;5.926;2022-12-11T05:05:52;100234.91;;;-0.01;79.74
70909;BME280;58554;52.006;5.926;2022-12-11T05:08:20;100239.25;;;-0.02;79.66
70909;BME280;58554;52.006;5.926;2022-12-11T05:10:54;100238.44;;;-0.04;79.54
70909;BME280;58554;52.006;5.926;2022-12-11T05:13:21;100240.09;;;-0.01;79.77
70909;BME280;58554;52.006;5.926;2022-12-11T05:15:51;100239.25;;;-0.02;79.88
70909;BME280;58554;52.006;5.926;2022-12-11T05:18:18;100240.94;;;-0.01;79.57
70909;BME280;58554;52.006;5.926;2022-12-11T05:20:54;100242.69;;;-0.01;79.66
70909;BME280;58554;52.006;5.926;2022-12-11T05:23:20;100249.59;;;-0.00;79.57
70909;BME280;58554;52.006;5.926;2022-12-11T05:25:50;100243.53;;;-0.01;79.73
70909;BME280;58554;52.006;5.926;2022-12-11T05:28:17;100241.88;;;-0.03;79.81
70909;BME280;58554;52.006;5.926;2022-12-11T05:30:44;100243.63;;;-0.04;79.84
70909;BME280;58554;52.006;5.926;2022-12-11T05:33:13;100246.22;;;-0.04;79.78
70909;BME280;58554;52.006;5.926;2022-12-11T05:35:45;100241.97;;;-0.06;79.92
70909;BME280;58554;52.006;5.926;2022-12-11T05:38:13;100240.22;;;-0.07;80.00
70909;BME280;58554;52.006;5.926;2022-12-11T05:40:40;100243.72;;;-0.08;80.16
70909;BME280;58554;52.006;5.926;2022-12-11T05:43:06;100236.81;;;-0.09;79.92
70909;BME280;58554;52.006;5.926;2022-12-11T05:45:33;100233.38;;;-0.10;80.13
70909;BME280;58554;52.006;5.926;2022-12-11T05:48:00;100230.78;;;-0.11;79.97
70909;BME280;58554;52.006;5.926;2022-12-11T05:50:29;100224.78;;;-0.13;79.78
70909;BME280;58554;52.006;5.926;2022-12-11T05:52:56;100229.13;;;-0.14;79.93
70909;BME280;58554;52.006;5.926;2022-12-11T05:55:22;100233.41;;;-0.13;79.88
70909;BME280;58554;52.006;5.926;2022-12-11T05:57:49;100228.28;;;-0.14;79.94
70909;BME280;58554;52.006;5.926;2022-12-11T06:00:15;100223.94;;;-0.15;80.22
70909;BME280;58554;52.006;5.926;2022-12-11T06:02:42;100225.72;;;-0.17;80.21
70909;BME280;58554;52.006;5.926;2022-12-11T06:05:08;100224.03;;;-0.18;80.36
70909;BME280;58554;52.006;5.926;2022-12-11T06:07:37;100218.84;;;-0.20;80.67
70909;BME280;58554;52.006;5.926;2022-12-11T06:10:05;100210.16;;;-0.19;80.51
70909;BME280;58554;52.006;5.926;2022-12-11T06:12:32;100219.72;;;-0.20;80.47
70909;BME280;58554;52.006;5.926;2022-12-11T06:14:59;100211.06;;;-0.20;80.30
70909;BME280;58554;52.006;5.926;2022-12-11T06:17:25;100208.53;;;-0.23;80.32
70909;BME280;58554;52.006;5.926;2022-12-11T06:19:52;100207.66;;;-0.22;80.25
70909;BME280;58554;52.006;5.926;2022-12-11T06:22:18;100210.22;;;-0.21;80.08
70909;BME280;58554;52.006;5.926;2022-12-11T06:24:47;100210.97;;;-0.17;79.95
70909;BME280;58554;52.006;5.926;2022-12-11T06:27:14;100210.97;;;-0.15;79.89
70909;BME280;58554;52.006;5.926;2022-12-11T06:29:40;100210.09;;;-0.14;79.73
70909;BME280;58554;52.006;5.926;2022-12-11T06:32:07;100211.81;;;-0.15;80.02
70909;BME280;58554;52.006;5.926;2022-12-11T06:34:33;100211.88;;;-0.16;79.86
70909;BME280;58554;52.006;5.926;2022-12-11T06:37:00;100210.13;;;-0.17;79.80
70909;BME280;58554;52.006;5.926;2022-12-11T06:39:27;100211.88;;;-0.18;79.78
70909;BME280;58554;52.006;5.926;2022-12-11T06:41:56;100221.44;;;-0.18;79.83
70909;BME280;58554;52.006;5.926;2022-12-11T06:44:22;100219.72;;;-0.21;79.87
70909;BME280;58554;52.006;5.926;2022-12-11T06:46:49;100212.00;;;-0.23;80.10
70909;BME280;58554;52.006;5.926;2022-12-11T06:49:15;100223.22;;;-0.21;80.01
70909;BME280;58554;52.006;5.926;2022-12-11T06:51:42;100223.16;;;-0.19;79.72
70909;BME280;58554;52.006;5.926;2022-12-11T06:54:08;100230.06;;;-0.18;79.78
70909;BME280;58554;52.006;5.926;2022-12-11T06:56:35;100238.66;;;-0.14;79.98
70909;BME280;58554;52.006;5.926;2022-12-11T06:59:04;100233.53;;;-0.17;79.89
70909;BME280;58554;52.006;5.926;2022-12-11T07:01:31;100238.72;;;-0.17;79.74
70909;BME280;58554;52.006;5.926;2022-12-11T07:03:59;100238.69;;;-0.16;79.51
70909;BME280;58554;52.006;5.926;2022-12-11T07:06:27;100243.03;;;-0.16;79.78
70909;BME280;58554;52.006;5.926;2022-12-11T07:08:55;100236.97;;;-0.17;79.59
70909;BME280;58554;52.006;5.926;2022-12-11T07:11:22;100247.34;;;-0.17;79.51
70909;BME280;58554;52.006;5.926;2022-12-11T07:13:48;100241.34;;;-0.19;79.51
70909;BME280;58554;52.006;5.926;2022-12-11T07:16:18;100240.53;;;-0.21;79.57
70909;BME280;58554;52.006;5.926;2022-12-11T07:18:47;100247.44;;;-0.20;79.59
70909;BME280;58554;52.006;5.926;2022-12-11T07:21:15;100244.84;;;-0.20;79.25
70909;BME280;58554;52.006;5.926;2022-12-11T07:23:42;100238.81;;;-0.21;79.30
70909;BME280;58554;52.006;5.926;2022-12-11T07:26:11;100243.13;;;-0.21;79.56
70909;BME280;58554;52.006;5.926;2022-12-11T07:28:40;100244.03;;;-0.22;79.57
70909;BME280;58554;52.006;5.926;2022-12-11T07:31:09;100242.28;;;-0.23;79.67
70909;BME280;58554;52.006;5.926;2022-12-11T07:33:40;100245.81;;;-0.26;80.11
70909;BME280;58554;52.006;5.926;2022-12-11T07:36:09;100248.44;;;-0.27;79.89
70909;BME280;58554;52.006;5.926;2022-12-11T07:38:39;100251.91;;;-0.27;79.80
70909;BME280;58554;52.006;5.926;2022-12-11T07:41:09;100257.13;;;-0.27;79.90
70909;BME280;58554;52.006;5.926;2022-12-11T07:43:39;100245.94;;;-0.30;79.87
70909;BME280;58554;52.006;5.926;2022-12-11T07:46:09;100245.94;;;-0.32;80.02
70909;BME280;58554;52.006;5.926;2022-12-11T07:48:41;100249.44;;;-0.33;79.76
70909;BME280;58554;52.006;5.926;2022-12-11T07:51:11;100244.28;;;-0.34;80.04
70909;BME280;58554;52.006;5.926;2022-12-11T07:53:39;100245.19;;;-0.37;79.68
70909;BME280;58554;52.006;5.926;2022-12-11T07:56:08;100250.41;;;-0.37;79.62
70909;BME280;58554;52.006;5.926;2022-12-11T07:58:35;100246.91;;;-0.36;79.58
70909;BME280;58554;52.006;5.926;2022-12-11T08:01:02;100259.00;;;-0.35;79.42
70909;BME280;58554;52.006;5.926;2022-12-11T08:03:28;100257.25;;;-0.34;79.51
70909;BME280;58554;52.006;5.926;2022-12-11T08:05:57;100254.75;;;-0.37;79.26
70909;BME280;58554;52.006;5.926;2022-12-11T08:08:24;100260.81;;;-0.38;79.68
70909;BME280;58554;52.006;5.926;2022-12-11T08:10:52;100256.53;;;-0.40;79.66
70909;BME280;58554;52.006;5.926;2022-12-11T08:13:19;100255.63;;;-0.40;79.27
70909;BME280;58554;52.006;5.926;2022-12-11T08:15:45;100268.59;;;-0.37;79.43
70909;BME280;58554;52.006;5.926;2022-12-11T08:18:12;100268.59;;;-0.37;79.21
70909;BME280;58554;52.006;5.926;2022-12-11T08:20:39;100260.78;;;-0.37;79.42
70909;BME280;58554;52.006;5.926;2022-12-11T08:23:08;100259.97;;;-0.39;79.53
70909;BME280;58554;52.006;5.926;2022-12-11T08:25:34;100266.84;;;-0.38;79.38
70909;BME280;58554;52.006;5.926;2022-12-11T08:28:01;100264.25;;;-0.38;79.13
70909;BME280;58554;52.006;5.926;2022-12-11T08:30:28;100267.75;;;-0.39;79.48
70909;BME280;58554;52.006;5.926;2022-12-11T08:32:54;100269.53;;;-0.41;79.21
70909;BME280;58554;52.006;5.926;2022-12-11T08:35:21;100259.16;;;-0.43;79.52
70909;BME280;58554;52.006;5.926;2022-12-11T08:37:48;100266.03;;;-0.40;79.42
70909;BME280;58554;52.006;5.926;2022-12-11T08:40:17;100261.78;;;-0.44;79.61
70909;BME280;58554;52.006;5.926;2022-12-11T08:42:44;100265.22;;;-0.42;79.36
70909;BME280;58554;52.006;5.926;2022-12-11T08:45:10;100265.19;;;-0.41;79.20
70909;BME280;58554;52.006;5.926;2022-12-11T08:47:37;100263.41;;;-0.38;79.42
70909;BME280;58554;52.006;5.926;2022-12-11T08:50:04;100258.31;;;-0.43;79.39
70909;BME280;58554;52.006;5.926;2022-12-11T08:52:33;100255.72;;;-0.43;79.55
70909;BME280;58554;52.006;5.926;2022-12-11T08:54:59;100257.50;;;-0.45;79.29
70909;BME280;58554;52.006;5.926;2022-12-11T08:57:29;100251.44;;;-0.46;79.39
70909;BME280;58554;52.006;5.926;2022-12-11T08:59:55;100246.19;;;-0.44;79.36
70909;BME280;58554;52.006;5.926;2022-12-11T09:02:22;100255.72;;;-0.43;79.21
70909;BME280;58554;52.006;5.926;2022-12-11T09:04:48;100254.81;;;-0.42;79.14
70909;BME280;58554;52.006;5.926;2022-12-11T09:07:15;100247.91;;;-0.42;79.08
70909;BME280;58554;52.006;5.926;2022-12-11T09:09:41;100250.50;;;-0.42;79.18
70909;BME280;58554;52.006;5.926;2022-12-11T09:12:08;100246.13;;;-0.40;79.12
70909;BME280;58554;52.006;5.926;2022-12-11T09:14:37;100246.97;;;-0.37;79.13
70909;BME280;58554;52.006;5.926;2022-12-11T09:17:04;100245.13;;;-0.34;78.97
70909;BME280;58554;52.006;5.926;2022-12-11T09:19:30;100243.34;;;-0.32;78.99
70909;BME280;58554;52.006;5.926;2022-12-11T09:21:57;100240.72;;;-0.29;78.90
70909;BME280;58554;52.006;5.926;2022-12-11T09:24:23;100238.03;;;-0.26;79.03
70909;BME280;58554;52.006;5.926;2022-12-11T09:26:50;100244.88;;;-0.23;78.78
70909;BME280;58554;52.006;5.926;2022-12-11T09:29:17;100235.38;;;-0.23;78.76
70909;BME280;58554;52.006;5.926;2022-12-11T09:31:46;100238.81;;;-0.22;78.87
70909;BME280;58554;52.006;5.926;2022-12-11T09:34:13;100241.34;;;-0.19;78.93
70909;BME280;58554;52.006;5.926;2022-12-11T09:36:40;100243.88;;;-0.16;78.86
70909;BME280;58554;52.006;5.926;2022-12-11T09:39:09;100241.25;;;-0.14;78.92
70909;BME280;58554;52.006;5.926;2022-12-11T09:41:39;100245.56;;;-0.13;78.79
70909;BME280;58554;52.006;5.926;2022-12-11T09:44:19;100245.50;;;-0.10;78.97
70909;BME280;58554;52.006;5.926;2022-12-11T09:47:04;100240.31;;;-0.10;78.99
70909;BME280;58554;52.006;5.926;2022-12-11T09:49:46;100247.19;;;-0.08;78.66
70909;BME280;58554;52.006;5.926;2022-12-11T09:52:19;100243.69;;;-0.07;79.04
70909;BME280;58554;52.006;5.926;2022-12-11T09:54:54;100247.09;;;-0.05;78.84
70909;BME280;58554;52.006;5.926;2022-12-11T09:57:33;100243.63;;;-0.04;78.79
70909;BME280;58554;52.006;5.926;2022-12-11T10:00:25;100232.28;;;-0.01;78.82
70909;BME280;58554;52.006;5.926;2022-12-11T10:03:09;100229.66;;;0.00;78.81
70909;BME280;58554;52.006;5.926;2022-12-11T10:06:05;100225.34;;;-0.01;78.49
70909;BME280;58554;52.006;5.926;2022-12-11T10:08:42;100226.31;;;-0.05;78.76
70909;BME280;58554;52.006;5.926;2022-12-11T10:11:26;100233.28;;;-0.07;78.51
70909;BME280;58554;52.006;5.926;2022-12-11T10:14:27;100232.41;;;-0.06;78.66
70909;BME280;58554;52.006;5.926;2022-12-11T10:17:09;100226.31;;;-0.05;78.71
70909;BME280;58554;52.006;5.926;2022-12-11T10:19:44;100230.69;;;-0.07;78.83
70909;BME280;58554;52.006;5.926;2022-12-11T10:22:16;100230.69;;;-0.07;78.41
70909;BME280;58554;52.006;5.926;2022-12-11T10:24:53;100230.66;;;-0.05;78.57
70909;BME280;58554;52.006;5.926;2022-12-11T10:27:26;100227.13;;;-0.03;78.84
70909;BME280;58554;52.006;5.926;2022-12-11T10:30:01;100218.41;;;-0.00;78.66
70909;BME280;58554;52.006;5.926;2022-12-11T10:32:43;100220.84;;;0.06;78.64
70909;BME280;58554;52.006;5.926;2022-12-11T10:35:27;100225.97;;;0.11;78.30
70909;BME280;58554;52.006;5.926;2022-12-11T10:38:10;100218.19;;;0.11;78.60
70909;BME280;58554;52.006;5.926;2022-12-11T10:40:43;100213.94;;;0.07;78.62
70909;BME280;58554;52.006;5.926;2022-12-11T10:43:11;100211.34;;;0.07;78.41
70909;BME280;58554;52.006;5.926;2022-12-11T10:45:48;100217.31;;;0.10;78.55
70909;BME280;58554;52.006;5.926;2022-12-11T10:48:18;100208.59;;;0.13;78.46
70909;BME280;58554;52.006;5.926;2022-12-11T10:50:57;100209.41;;;0.15;78.63
70909;BME280;58554;52.006;5.926;2022-12-11T10:53:29;100211.09;;;0.17;78.42
70909;BME280;58554;52.006;5.926;2022-12-11T10:55:59;100210.97;;;0.22;78.25
70909;BME280;58554;52.006;5.926;2022-12-11T10:58:29;100208.38;;;0.22;78.33
70909;BME280;58554;52.006;5.926;2022-12-11T11:01:06;100210.91;;;0.25;78.32
70909;BME280;58554;52.006;5.926;2022-12-11T11:03:50;100213.44;;;0.27;78.33
70909;BME280;58554;52.006;5.926;2022-12-11T11:06:25;100216.03;;;0.28;78.30
70909;BME280;58554;52.006;5.926;2022-12-11T11:08:54;100212.50;;;0.31;78.35
70909;BME280;58554;52.006;5.926;2022-12-11T11:11:26;100205.56;;;0.31;78.07
70909;BME280;58554;52.006;5.926;2022-12-11T11:14:06;100203.81;;;0.32;78.26
70909;BME280;58554;52.006;5.926;2022-12-11T11:16:42;100198.63;;;0.30;78.19
70909;BME280;58554;52.006;5.926;2022-12-11T11:19:18;100197.78;;;0.30;78.21
70909;BME280;58554;52.006;5.926;2022-12-11T11:21:52;100197.72;;;0.33;78.29
70909;BME280;58554;52.006;5.926;2022-12-11T11:24:26;100198.53;;;0.35;78.14
70909;BME280;58554;52.006;5.926;2022-12-11T11:26:58;100206.31;;;0.35;78.14
70909;BME280;58554;52.006;5.926;2022-12-11T11:29:28;100196.84;;;0.34;78.32
70909;BME280;58554;52.006;5.926;2022-12-11T11:32:13;100192.47;;;0.34;78.31
70909;BME280;58554;52.006;5.926;2022-12-11T11:34:43;100195.81;;;0.39;78.23
70909;BME280;58554;52.006;5.926;2022-12-11T11:37:29;100188.88;;;0.40;78.02
70909;BME280;58554;52.006;5.926;2022-12-11T11:40:05;100187.97;;;0.41;78.04
70909;BME280;58554;52.006;5.926;2022-12-11T11:42:45;100184.56;;;0.39;78.04
70909;BME280;58554;52.006;5.926;2022-12-11T11:45:23;100188.91;;;0.38;78.26
70909;BME280;58554;52.006;5.926;2022-12-11T11:48:10;100184.66;;;0.36;78.26
70909;BME280;58554;52.006;5.926;2022-12-11T11:50:47;100175.16;;;0.33;77.96
70909;BME280;58554;52.006;5.926;2022-12-11T11:53:23;100185.63;;;0.32;78.00
70909;BME280;58554;52.006;5.926;2022-12-11T11:56:04;100174.31;;;0.33;78.20
70909;BME280;58554;52.006;5.926;2022-12-11T11:58:46;100168.22;;;0.34;78.21
70909;BME280;58554;52.006;5.926;2022-12-11T12:01:22;100168.22;;;0.34;78.21
70909;BME280;58554;52.006;5.926;2022-12-11T12:03:50;100163.84;;;0.36;78.25
70909;BME280;58554;52.006;5.926;2022-12-11T12:06:28;100162.97;;;0.35;78.11
70909;BME280;58554;52.006;5.926;2022-12-11T12:09:19;100168.94;;;0.39;78.05
70909;BME280;58554;52.006;5.926;2022-12-11T12:12:02;100160.22;;;0.41;78.26
70909;BME280;58554;52.006;5.926;2022-12-11T12:14:53;100165.47;;;0.40;78.02
70909;BME280;58554;52.006;5.926;2022-12-11T12:17:33;100167.19;;;0.39;78.29
70909;BME280;58554;52.006;5.926;2022-12-11T12:20:18;100161.16;;;0.39;78.29
70909;BME280;58554;52.006;5.926;2022-12-11T12:23:02;100163.72;;;0.40;78.39
70909;BME280;58554;52.006;5.926;2022-12-11T12:25:48;100154.19;;;0.39;78.29
70909;BME280;58554;52.006;5.926;2022-12-11T12:28:27;100152.41;;;0.41;78.28
70909;BME280;58554;52.006;5.926;2022-12-11T12:31:14;100157.66;;;0.40;78.04
70909;BME280;58554;52.006;5.926;2022-12-11T12:34:01;100155.06;;;0.40;78.09
70909;BME280;58554;52.006;5.926;2022-12-11T12:36:40;100155.97;;;0.37;78.24
70909;BME280;58554;52.006;5.926;2022-12-11T12:39:20;100165.50;;;0.38;78.12
70909;BME280;58554;52.006;5.926;2022-12-11T12:42:07;100155.97;;;0.37;78.16
70909;BME280;58554;52.006;5.926;2022-12-11T12:44:53;100159.38;;;0.39;78.15
70909;BME280;58554;52.006;5.926;2022-12-11T12:47:25;100165.50;;;0.38;78.26
70909;BME280;58554;52.006;5.926;2022-12-11T12:50:00;100150.84;;;0.36;78.15
70909;BME280;58554;52.006;5.926;2022-12-11T12:52:31;100153.44;;;0.36;77.87
70909;BME280;58554;52.006;5.926;2022-12-11T12:55:04;100160.41;;;0.34;78.12
70909;BME280;58554;52.006;5.926;2022-12-11T12:57:49;100168.22;;;0.34;78.13
70909;BME280;58554;52.006;5.926;2022-12-11T13:00:28;100164.75;;;0.33;77.93
70909;BME280;58554;52.006;5.926;2022-12-11T13:03:00;100164.75;;;0.33;78.16
70909;BME280;58554;52.006;5.926;2022-12-11T13:05:40;100164.81;;;0.32;77.93
70909;BME280;58554;52.006;5.926;2022-12-11T13:08:09;100166.59;;;0.30;78.25
70909;BME280;58554;52.006;5.926;2022-12-11T13:10:38;100164.13;;;0.25;78.12
70909;BME280;58554;52.006;5.926;2022-12-11T13:13:28;100162.34;;;0.26;78.23
70909;BME280;58554;52.006;5.926;2022-12-11T13:16:22;100164.06;;;0.27;77.96